Buffalo Ridge, South Dakota
Current Conditions -  °F | °C
As of 6:56 AM on Sunday 23 Nov 2014 (Local Time) from KFSD Reporting Station
Overcast Overcast  
Wind Chill: 33°   Ceiling: 9000
Heat Index: 40°   Visibility: 10mi
Dew Point: 37°   Wind: 13mph
Humidity: 89%   Direction: 310°NW
Pressure: 29.48"   Gusts: NA
Location:  43.66°N, 96.82°W
Report Text: KFSD 231256Z 31011KT 10SM OVC090 04/03 A2948 RMK AO2 SLP990 T00440028
Loading
Personal Weather Stations






























Interactive Weather Map New forecast layout! Learn more

10-Day Weather Forecast

Advertisements
Track Severe Weather on mobile